Pewamo, MI (48873)

5:43 PM EST en Noviembre 20, 2017 (GMT -0500)
Fox Farms | | Change Station
Aviso en curso: Flood Advisory Aviso activo: Flood Advisory

Alt 778 ft 42.90 °N, 84.98 °W | Updated 6 minutes ago

Despejado
Despejado
45.5 ° F
Sensación térmica 42 ° F
N
6.0
Viento Variable Viento desde Sur
Gusts 13.0 mph

Hoy
Alta -- | Baja -- ° F
--% Posibilidad de precipitaciones
Ayer
Alta -- | Baja -- ° F
Precip. -- pul
Presión 29.75 pul
Visibilidad 10.0 Millas
Nubes Despejado
Vientos helados 42 ° F
Punto de rocío 33 ° F
Humedad 61%
Precipitaciones 0.00 pul
Espesor de la nieve No disponible.
7:38 AM 5:11 PM
Creciente, 5% visible
METAR KY70 202234Z AUTO 20010KT 10SM CLR 07/M01 A2975 RMK AO2 T00681010
Presión 29.75 pul
Visibilidad 10.0 Millas
Nubes Despejado
Vientos helados 42 ° F
Punto de rocío 33 ° F
Humedad 61%
Precipitaciones 0.00 pul
Espesor de la nieve No disponible.
7:38 AM 5:11 PM
Creciente, 5% visible
METAR KY70 202234Z AUTO 20010KT 10SM CLR 07/M01 A2975 RMK AO2 T00681010

Get Your Daily Forecast Email!

Thanks for signing up!

Be on the lookout for a verification email in your inbox.

You'll start receiving severe weather alerts in your inbox..

×

10-Day Weather Forecast

Almanac

Astronomía

Nov. 20, 2017 Salida Puesta
Hora real
Crepúsculo civil
Crepúsculo náutico
Crepúsculo astronómico
Luna
Horas de luz
Horas de luz
Tomorrow will be .
, % of the Moon is Illuminated

Extremos de hoy

Máximos del estado Bajos del estado

Community

WunderPhotos

Category 6

Welcome to Category 6. This is the collective home for Weather Underground's featured writeups by Dr. Jeff Masters (right), Bob Henson (left), Chris Burt, and other regular contributors.

Nearby

Calidad del aire

  Calidad del aire Índice AQ Contaminante
Not available.

Grosos de nieve

Estación Profundido Altura

Actividad de terremotos

Ciudad Distance Mag. Tiempo y dato
Magnitud mínima muestra es 2,5.

Temperaturas de aguas costeras

Lugar Temperatura

Stations

Estaciones meteorológicas cercanas

Ubicación de la estación Temp. Vientos helados Punto de rocío Humedad Viento Precip. Alt Actualizado Tipo
                   

Watches & Warnings

Flood Advisory
Issued: 11:23 AM EST Nov. 20, 2017 – National Weather Service

The flood advisory continues for
the Grand River at Ionia
* until Saturday evening.
* At 10 am Monday the stage was 15.1 feet.
* Bankfull stage is 13.5 feet.
* Flood stage is 21.0 feet.
* Forecast, the river will rise to near 15.2 feet by tomorrow
morning.
* Impact, at 15.0 feet... high water affects north drive on Ionia
Fairgrounds.


Lat... Lon 4297 8524 4303 8488 4296 8499 4290 8521